VE17 weather

Aviosuperficie Alicaorle
Caorle (VE), Veneto, Italy

Public forecast

Using degrees Celsius for public forecast. Weather courtesy of forecast.io.

METAR (pilot weather report)

Closest report is Venice Marco Polo Airport, 20.5 nm (37.9 km) WSW. Retrieved 2019/09/18 07:50 UTC (15 minutes ago):

LIPZ 180750Z 07008KT 9999 FEW015 SCT057 BKN063 23/19 Q1015 NOSIG

TAF (pilot weather forecast)

Closest forecast is Venice Marco Polo Airport, 20.5 nm (37.9 km) WSW. Retrieved 2019/09/18 06:36 UTC (1 hour ago):

TAF LIPZ 180500Z 1806/1912 08014KT 9999 SCT040 TEMPO 1806/1808 SHRA TEMPO 1808/1816 TSRA TEMPO 1808/1812 07016G26KT